Time;durP1;ratioP1;P1;durP2;ratioP2;P2;SDS_P1;SDS_P2;PMS_P1;PMS_P2;Temp;Humidity;BMP_temperature;BMP_pressure;BME280_temperature;BME280_humidity;BME280_pressure;Samples;Min_cycle;Max_cycle;Signal;HPM_P1;HPM_P2
2023/03/07 00:00:49;;;;;;;24.98;14.35;;;;;;;5.47;68.52;100351.91;4913759;29;20086;-83
2023/03/07 00:03:19;;;;;;;29.50;15.15;;;;;;;5.54;68.72;100353.06;4914163;29;20107;-84
2023/03/07 00:05:46;;;;;;;31.48;15.02;;;;;;;5.52;68.76;100355.00;4895548;29;20314;-83
2023/03/07 00:08:13;;;;;;;28.17;14.98;;;;;;;5.45;69.18;100332.53;4913831;29;20153;-83
2023/03/07 00:10:38;;;;;;;32.97;14.48;;;;;;;5.39;69.58;100349.09;4913157;29;20035;-82
2023/03/07 00:13:04;;;;;;;31.87;14.80;;;;;;;5.44;69.06;100342.38;4898309;29;20127;-83
2023/03/07 00:15:30;;;;;;;30.67;15.55;;;;;;;5.29;69.12;100301.91;4912326;29;20103;-84
2023/03/07 00:17:56;;;;;;;26.80;14.00;;;;;;;5.31;69.40;100311.59;4907304;29;20058;-83
2023/03/07 00:20:22;;;;;;;27.48;13.68;;;;;;;5.41;69.80;100331.16;4915253;29;20130;-79
2023/03/07 00:22:47;;;;;;;26.35;13.30;;;;;;;5.50;69.72;100338.28;4916522;29;20094;-84
2023/03/07 00:25:13;;;;;;;27.13;13.77;;;;;;;5.52;69.68;100332.84;4933587;29;20048;-83
2023/03/07 00:27:41;;;;;;;28.85;13.63;;;;;;;5.32;70.24;100310.63;4913219;29;20345;-83
2023/03/07 00:30:11;;;;;;;27.83;12.40;;;;;;;5.50;70.08;100319.63;4900343;29;20055;-83
2023/03/07 00:32:36;;;;;;;22.85;12.73;;;;;;;5.49;70.13;100318.78;4911653;29;20074;-85
2023/03/07 00:35:02;;;;;;;27.10;12.27;;;;;;;5.50;70.10;100314.31;4934035;29;20526;-85
2023/03/07 00:37:30;;;;;;;30.77;13.27;;;;;;;5.41;70.06;100299.16;4916658;29;20433;-83
2023/03/07 00:39:57;;;;;;;29.35;12.98;;;;;;;5.38;70.06;100296.72;4901498;29;20280;-84
2023/03/07 00:42:26;;;;;;;29.48;12.63;;;;;;;5.54;69.94;100310.38;4875470;29;20111;-83
2023/03/07 00:44:54;;;;;;;26.77;12.77;;;;;;;5.56;69.95;100297.75;4892731;29;20059;-83
2023/03/07 00:47:29;;;;;;;24.15;12.57;;;;;;;5.62;70.05;100310.56;4933973;29;20100;-84
2023/03/07 00:49:55;;;;;;;24.58;12.65;;;;;;;5.63;70.00;100306.91;4910843;29;20106;-83
2023/03/07 00:52:21;;;;;;;28.20;12.90;;;;;;;5.62;69.82;100302.56;4898929;29;20048;-83
2023/03/07 00:54:49;;;;;;;26.15;13.30;;;;;;;5.61;69.91;100306.19;4933580;29;20275;-83
2023/03/07 00:57:16;;;;;;;27.00;13.20;;;;;;;5.58;69.82;100289.63;4933510;29;20174;-83
2023/03/07 00:59:42;;;;;;;22.98;13.18;;;;;;;5.59;69.58;100297.47;4915546;29;20110;-83
2023/03/07 01:02:07;;;;;;;23.70;13.00;;;;;;;5.58;69.62;100287.81;4908724;29;20059;-82
2023/03/07 01:04:33;;;;;;;25.80;13.65;;;;;;;5.58;69.75;100290.47;4899640;29;20370;-83
2023/03/07 01:07:00;;;;;;;25.90;13.95;;;;;;;5.51;69.98;100284.00;4912810;29;20054;-82
2023/03/07 01:09:26;;;;;;;27.48;15.18;;;;;;;5.43;70.34;100279.38;4927572;29;20564;-83
2023/03/07 01:11:52;;;;;;;34.20;18.35;;;;;;;5.36;70.28;100270.22;4928510;29;20043;-82
2023/03/07 01:14:17;;;;;;;45.20;19.83;;;;;;;5.33;70.43;100278.47;4887640;29;20055;-83
2023/03/07 01:16:44;;;;;;;41.05;21.92;;;;;;;5.37;70.47;100277.25;4897423;29;20068;-88
2023/03/07 01:19:11;;;;;;;39.35;19.88;;;;;;;5.18;70.79;100254.03;4916931;29;20048;-85
2023/03/07 01:21:38;;;;;;;33.88;18.00;;;;;;;5.27;70.91;100263.88;4914065;29;20051;-83
2023/03/07 01:24:06;;;;;;;31.42;17.52;;;;;;;5.29;71.17;100269.06;4903560;29;20095;-82
2023/03/07 01:26:32;;;;;;;34.28;17.40;;;;;;;5.14;71.79;100255.28;4921844;29;20066;-83
2023/03/07 01:28:59;;;;;;;32.33;18.13;;;;;;;5.26;71.50;100267.50;4933460;29;20484;-84
2023/03/07 01:31:24;;;;;;;48.20;17.98;;;;;;;5.23;71.76;100254.47;4908821;29;20072;-84
2023/03/07 01:33:52;;;;;;;39.97;18.05;;;;;;;5.10;73.06;100253.88;4896985;29;20473;-81
2023/03/07 01:36:50;;;;;;;31.25;16.63;;;;;;;4.92;74.33;100245.69;4912415;29;20147;-83
2023/03/07 01:39:16;;;;;;;27.23;14.30;;;;;;;5.11;74.09;100260.06;4908426;29;20139;-83
2023/03/07 01:41:43;;;;;;;27.10;14.10;;;;;;;5.16;73.95;100258.66;4905849;29;20052;-82
2023/03/07 01:44:19;;;;;;;23.90;13.27;;;;;;;5.05;74.27;100237.44;4914074;29;20171;-84
2023/03/07 01:46:56;;;;;;;23.20;12.98;;;;;;;5.07;75.03;100243.47;4899972;29;20139;-82
2023/03/07 01:49:25;;;;;;;;;;;;;;;5.11;75.26;100250.25;4938901;29;20054;-81
2023/03/07 01:52:18;;;;;;;24.52;12.32;;;;;;;5.04;75.83;100246.44;4920844;29;19966;-82
2023/03/07 01:54:50;;;;;;;21.73;11.98;;;;;;;4.98;76.08;100236.31;4934721;29;20040;-81
2023/03/07 01:57:17;;;;;;;23.58;12.98;;;;;;;5.02;76.42;100241.22;4934364;29;20059;-82
2023/03/07 01:59:45;;;;;;;21.77;11.95;;;;;;;5.08;76.02;100245.19;4911873;29;20057;-82
2023/03/07 02:02:15;;;;;;;23.85;12.98;;;;;;;5.23;75.88;100241.16;4892375;29;20099;-83
2023/03/07 02:04:53;;;;;;;23.67;12.95;;;;;;;5.25;75.75;100241.84;4921231;29;20039;-82
2023/03/07 02:07:19;;;;;;;26.45;13.75;;;;;;;5.19;75.84;100226.41;4930971;29;20126;-82
2023/03/07 02:09:45;;;;;;;26.88;13.57;;;;;;;5.24;76.05;100223.31;4894041;29;20139;-82
2023/03/07 02:12:10;;;;;;;24.60;12.82;;;;;;;5.18;76.59;100224.72;4892451;29;20047;-83
2023/03/07 02:14:38;;;;;;;25.83;13.85;;;;;;;5.26;75.69;100224.88;4914679;29;20077;-83
2023/03/07 02:17:03;;;;;;;28.02;13.15;;;;;;;5.38;75.56;100246.09;4912286;29;20202;-87
2023/03/07 02:19:55;;;;;;;28.15;14.00;;;;;;;5.45;75.34;100241.88;4928123;29;20172;-83
2023/03/07 02:22:20;;;;;;;25.77;13.93;;;;;;;5.44;75.61;100235.72;4931725;29;20126;-84
2023/03/07 02:24:55;;;;;;;21.93;11.67;;;;;;;5.40;75.67;100238.78;4899172;29;20170;-83
2023/03/07 02:27:28;;;;;;;22.92;12.15;;;;;;;5.44;76.08;100240.22;4932105;29;20066;-84
2023/03/07 02:29:55;;;;;;;24.73;13.60;;;;;;;5.36;76.18;100237.38;4922638;29;20083;-82
2023/03/07 02:32:21;;;;;;;23.83;12.93;;;;;;;5.33;76.53;100233.16;4915138;29;20055;-82
2023/03/07 02:34:47;;;;;;;23.98;12.80;;;;;;;5.36;76.29;100242.72;4900123;29;20047;-82
2023/03/07 02:37:46;;;;;;;26.00;13.43;;;;;;;5.44;75.87;100245.53;4932385;29;20047;-82
2023/03/07 02:40:11;;;;;;;22.80;12.02;;;;;;;5.44;76.65;100242.88;4888824;29;20429;-82
2023/03/07 02:42:41;;;;;;;22.52;11.93;;;;;;;5.43;76.97;100244.72;4895118;29;20031;-82
2023/03/07 02:45:08;;;;;;;26.35;12.48;;;;;;;5.42;76.83;100239.50;4883889;29;20444;-83
2023/03/07 02:47:34;;;;;;;23.42;12.93;;;;;;;5.33;76.85;100227.00;4913890;29;20052;-84
2023/03/07 02:49:59;;;;;;;24.83;13.50;;;;;;;5.17;76.84;100204.38;4914299;29;20051;-83
2023/03/07 02:52:27;;;;;;;25.37;13.63;;;;;;;5.23;77.05;100209.16;4914834;29;20073;-83
2023/03/07 02:54:54;;;;;;;27.08;13.85;;;;;;;5.25;76.52;100204.53;4912444;29;20035;-83
2023/03/07 02:57:19;;;;;;;24.77;13.13;;;;;;;5.36;76.43;100213.38;4913618;29;20524;-84
2023/03/07 02:59:45;;;;;;;23.93;12.53;;;;;;;5.43;76.55;100227.84;4926427;29;20048;-83
2023/03/07 03:02:10;;;;;;;22.37;12.23;;;;;;;5.48;76.76;100230.97;4908034;29;20404;-83
2023/03/07 03:04:37;;;;;;;22.20;11.67;;;;;;;5.35;77.13;100219.72;4914486;29;20050;-83
2023/03/07 03:07:03;;;;;;;23.17;12.57;;;;;;;5.37;76.64;100209.75;4915132;29;20370;-83
2023/03/07 03:09:33;;;;;;;23.95;12.75;;;;;;;5.38;77.18;100222.94;4930434;29;20063;-82
2023/03/07 03:12:00;;;;;;;21.40;12.23;;;;;;;5.29;77.02;100205.97;4924316;29;20052;-82
2023/03/07 03:14:25;;;;;;;22.13;12.52;;;;;;;5.24;77.46;100205.53;4928919;29;20055;-84
2023/03/07 03:16:52;;;;;;;22.40;12.43;;;;;;;5.34;77.34;100213.53;4903032;29;20512;-83
2023/03/07 03:19:17;;;;;;;24.25;12.85;;;;;;;5.23;77.89;100211.81;4922953;29;20048;-84
2023/03/07 03:21:44;;;;;;;24.10;12.45;;;;;;;5.28;77.83;100209.59;4898659;29;20763;-83
2023/03/07 03:24:10;;;;;;;23.25;12.45;;;;;;;5.32;77.72;100214.66;4894328;29;20591;-84
2023/03/07 03:26:36;;;;;;;25.98;12.30;;;;;;;5.34;77.86;100212.69;4908691;29;20883;-84
2023/03/07 03:29:02;;;;;;;25.77;12.38;;;;;;;5.34;77.79;100207.34;4897396;29;20043;-86
2023/03/07 03:31:29;;;;;;;22.85;12.38;;;;;;;5.37;77.98;100212.41;4894824;29;20075;-83
2023/03/07 03:33:55;;;;;;;22.70;11.98;;;;;;;5.27;77.92;100202.59;4917464;29;20428;-81
2023/03/07 03:36:24;;;;;;;21.65;12.07;;;;;;;5.18;78.02;100189.25;4904658;29;20079;-82
2023/03/07 03:38:59;;;;;;;22.00;12.70;;;;;;;5.28;77.56;100200.75;4927163;29;20036;-82
2023/03/07 03:41:25;;;;;;;23.50;11.70;;;;;;;5.28;77.38;100216.75;4913447;29;20152;-82
2023/03/07 03:43:50;;;;;;;29.17;12.95;;;;;;;5.21;77.13;100188.97;4914878;29;20050;-83
2023/03/07 03:46:18;;;;;;;25.98;13.57;;;;;;;5.15;77.79;100218.81;4913395;29;20048;-83
2023/03/07 03:48:44;;;;;;;27.15;14.20;;;;;;;4.99;77.32;100188.22;4927019;29;20051;-81
2023/03/07 03:51:13;;;;;;;30.80;14.95;;;;;;;4.95;78.29;100207.28;4896923;29;20123;-82
2023/03/07 03:53:39;;;;;;;35.78;17.38;;;;;;;4.92;77.95;100207.56;4911355;29;20036;-83
2023/03/07 03:56:10;;;;;;;28.33;15.88;;;;;;;4.94;77.33;100194.91;4916982;29;20145;-89
2023/03/07 03:58:37;;;;;;;31.65;15.57;;;;;;;4.97;77.15;100198.16;4917385;29;20482;-84
2023/03/07 04:01:04;;;;;;;30.63;16.25;;;;;;;4.77;77.24;100175.94;4915235;29;20039;-83
2023/03/07 04:03:36;;;;;;;37.03;16.58;;;;;;;4.83;77.93;100193.22;4915732;29;20082;-83
2023/03/07 04:06:05;;;;;;;39.30;17.90;;;;;;;4.77;78.18;100189.25;4896079;29;20043;-82
2023/03/07 04:08:31;;;;;;;34.50;18.10;;;;;;;4.86;77.45;100182.28;4907511;29;20100;-82
2023/03/07 04:10:57;;;;;;;30.58;15.88;;;;;;;4.76;78.47;100186.75;4891551;29;20143;-83
2023/03/07 04:13:24;;;;;;;35.90;17.23;;;;;;;4.80;78.17;100183.69;4905636;29;20595;-83
2023/03/07 04:15:51;;;;;;;33.38;15.95;;;;;;;4.55;79.24;100152.19;4910774;29;20044;-83
2023/03/07 04:18:21;;;;;;;32.08;17.23;;;;;;;4.76;78.73;100178.75;4923992;29;20082;-81
2023/03/07 04:20:47;;;;;;;31.33;17.23;;;;;;;4.72;78.60;100174.69;4911738;29;20088;-82
2023/03/07 04:23:12;;;;;;;34.85;17.02;;;;;;;4.68;78.53;100168.75;4929094;29;20087;-83
2023/03/07 04:25:38;;;;;;;32.77;18.13;;;;;;;4.62;78.58;100159.50;4895323;29;20044;-87
2023/03/07 04:28:03;;;;;;;33.67;17.17;;;;;;;4.63;78.34;100178.97;4916311;29;20056;-84
2023/03/07 04:30:30;;;;;;;37.00;18.40;;;;;;;4.66;78.71;100178.72;4931578;29;20396;-86
2023/03/07 04:32:57;;;;;;;33.65;16.95;;;;;;;4.69;78.27;100188.28;4927780;29;20071;-83
2023/03/07 04:35:23;;;;;;;32.83;18.42;;;;;;;4.70;78.25;100182.78;4882882;29;20138;-88
2023/03/07 04:37:56;;;;;;;37.47;18.00;;;;;;;4.71;77.69;100200.47;4893954;29;20047;-83
2023/03/07 04:40:23;;;;;;;40.13;19.20;;;;;;;4.68;77.75;100199.88;4906859;29;20048;-85
2023/03/07 04:42:48;;;;;;;37.30;18.65;;;;;;;4.59;77.66;100166.94;4912351;29;20138;-85
2023/03/07 04:45:19;;;;;;;40.73;20.07;;;;;;;4.66;77.50;100202.69;4889941;29;20445;-83
2023/03/07 04:47:45;;;;;;;50.22;22.48;;;;;;;4.62;77.49;100206.59;4923321;29;20677;-84
2023/03/07 04:50:11;;;;;;;56.97;24.45;;;;;;;4.59;76.97;100197.06;4929179;29;20047;-84
2023/03/07 04:52:38;;;;;;;47.35;25.20;;;;;;;4.74;75.83;100196.69;4902180;29;20044;-85
2023/03/07 04:55:06;;;;;;;48.90;23.65;;;;;;;4.72;75.67;100180.84;4911807;29;20150;-84
2023/03/07 04:57:34;;;;;;;50.63;24.25;;;;;;;4.64;75.51;100176.19;4898151;29;20055;-83
2023/03/07 05:00:00;;;;;;;42.00;22.70;;;;;;;4.74;75.80;100184.22;4899495;29;20071;-82
2023/03/07 05:02:25;;;;;;;57.13;22.10;;;;;;;4.76;75.69;100200.91;4911224;29;20132;-83
2023/03/07 05:04:51;;;;;;;55.20;23.27;;;;;;;4.67;75.76;100167.09;4930821;29;20047;-83
2023/03/07 05:07:19;;;;;;;44.50;22.70;;;;;;;4.85;75.48;100196.59;4899665;29;20084;-86
2023/03/07 05:09:44;;;;;;;49.38;23.70;;;;;;;4.93;75.65;100209.22;4916397;29;20094;-87
2023/03/07 05:12:10;;;;;;;51.22;23.67;;;;;;;4.93;75.22;100215.41;4894032;29;20056;-85
2023/03/07 05:14:36;;;;;;;54.30;24.15;;;;;;;4.95;75.22;100217.94;4924070;29;20039;-83
2023/03/07 05:17:01;;;;;;;52.47;23.23;;;;;;;4.97;75.18;100218.66;4888098;29;20525;-84
2023/03/07 05:19:27;;;;;;;52.70;24.93;;;;;;;5.05;74.76;100216.13;4903475;29;20138;-87
2023/03/07 05:21:54;;;;;;;68.00;28.70;;;;;;;4.99;74.38;100190.06;4887411;29;20299;-86
2023/03/07 05:24:19;;;;;;;58.35;25.00;;;;;;;5.05;74.26;100189.47;4917180;29;20525;-86
2023/03/07 05:26:45;;;;;;;58.00;24.17;;;;;;;5.27;74.18;100207.91;4902865;29;20044;-85
2023/03/07 05:29:11;;;;;;;51.88;24.70;;;;;;;5.38;73.99;100206.94;4913002;29;20035;-88
2023/03/07 05:31:36;;;;;;;48.45;24.48;;;;;;;5.47;74.05;100203.44;4917559;29;20063;-87
2023/03/07 05:34:02;;;;;;;51.53;23.88;;;;;;;5.48;73.57;100205.13;4955592;29;20107;-90
2023/03/07 05:36:29;;;;;;;50.50;25.15;;;;;;;5.50;73.31;100199.63;4925978;29;20074;-89
2023/03/07 05:38:56;;;;;;;59.00;26.05;;;;;;;5.69;73.02;100215.66;4925148;29;20070;-89
2023/03/07 05:41:22;;;;;;;50.83;23.90;;;;;;;5.67;72.67;100204.28;4927360;29;20043;-86
2023/03/07 05:43:47;;;;;;;53.30;24.42;;;;;;;5.76;72.17;100188.41;4921450;29;20122;-87
2023/03/07 05:46:15;;;;;;;56.22;23.75;;;;;;;5.84;72.26;100209.91;4919997;29;20091;-90
2023/03/07 05:48:42;;;;;;;51.92;23.60;;;;;;;6.08;72.21;100236.16;4924033;29;20181;-89
2023/03/07 05:51:11;;;;;;;45.72;24.08;;;;;;;6.12;71.72;100222.41;4898076;29;20445;-84
2023/03/07 05:53:37;;;;;;;54.05;23.75;;;;;;;6.10;71.58;100203.00;4928554;29;20067;-89
2023/03/07 05:56:02;;;;;;;51.15;23.10;;;;;;;6.37;70.97;100229.94;4915831;29;20082;-90
2023/03/07 05:58:30;;;;;;;49.85;23.27;;;;;;;6.51;70.93;100232.16;4916788;29;20144;-89
2023/03/07 06:01:02;;;;;;;52.78;22.52;;;;;;;7.54;68.41;100219.56;4916671;29;20135;-90
2023/03/07 06:03:32;;;;;;;52.30;22.58;;;;;;;9.59;62.29;100197.44;4915120;29;20457;-91
2023/03/07 06:06:02;;;;;;;49.03;22.48;;;;;;;12.15;57.16;100204.41;4928243;29;20080;-90
2023/03/07 06:08:27;;;;;;;52.03;22.73;;;;;;;13.98;49.63;100211.75;4902737;29;20052;-90
2023/03/07 06:10:56;;;;;;;48.65;23.23;;;;;;;16.03;45.53;100227.41;4899510;29;20066;-93
2023/03/07 06:13:23;;;;;;;44.13;22.77;;;;;;;17.05;40.76;100219.81;4935168;29;20046;-91
2023/03/07 06:15:54;;;;;;;48.60;23.42;;;;;;;18.48;37.85;100208.47;4904604;29;20075;-87
2023/03/07 06:18:24;;;;;;;48.95;24.08;;;;;;;19.67;34.99;100227.22;4912337;29;20043;-92
2023/03/07 06:20:59;;;;;;;52.85;24.63;;;;;;;20.26;33.43;100213.75;4913687;29;20119;-91
2023/03/07 06:23:27;;;;;;;56.25;25.40;;;;;;;20.75;32.38;100222.59;4919843;29;20130;-90
2023/03/07 06:25:55;;;;;;;51.90;26.15;;;;;;;21.42;30.68;100197.53;4927452;29;20035;-87
2023/03/07 06:28:21;;;;;;;61.33;27.13;;;;;;;21.89;30.26;100232.00;4911556;29;20044;-85
2023/03/07 06:30:48;;;;;;;64.65;28.52;;;;;;;22.14;29.67;100201.53;4911484;29;20070;-87
2023/03/07 06:33:14;;;;;;;63.35;29.90;;;;;;;22.87;28.72;100213.31;4912654;29;20071;-88
2023/03/07 06:35:41;;;;;;;68.60;30.20;;;;;;;23.30;28.23;100224.63;4931837;29;20036;-88
2023/03/07 06:38:07;;;;;;;64.88;29.35;;;;;;;24.01;27.29;100241.03;4915351;29;20057;-88
2023/03/07 06:40:34;;;;;;;67.47;29.92;;;;;;;24.51;26.19;100233.50;4914736;29;20053;-88
2023/03/07 06:43:01;;;;;;;63.80;33.33;;;;;;;24.60;26.05;100212.69;4917601;29;20059;-86
2023/03/07 06:45:27;;;;;;;57.55;27.55;;;;;;;24.72;25.88;100220.75;4918723;29;20114;-87
2023/03/07 06:47:52;;;;;;;49.17;25.88;;;;;;;25.21;25.45;100228.72;4919081;29;20127;-85
2023/03/07 06:50:20;;;;;;;43.88;23.73;;;;;;;24.98;25.53;100229.94;4901938;29;20035;-84
2023/03/07 06:52:50;;;;;;;56.08;25.67;;;;;;;25.11;25.68;100226.72;4923191;29;20567;-85
2023/03/07 06:55:37;;;;;;;35.08;21.83;;;;;;;24.81;25.60;100225.47;4899791;29;20047;-86
2023/03/07 06:58:03;;;;;;;32.95;21.25;;;;;;;24.74;26.11;100235.06;4927258;29;20054;-85
2023/03/07 07:00:28;;;;;;;42.08;21.05;;;;;;;24.73;26.21;100225.97;4931529;29;20432;-87
2023/03/07 07:02:55;;;;;;;37.90;20.27;;;;;;;24.78;26.06;100228.75;4925415;29;20098;-87
2023/03/07 07:05:24;;;;;;;31.95;18.13;;;;;;;24.80;25.97;100229.31;4920937;29;20559;-88
2023/03/07 07:07:51;;;;;;;26.23;16.92;;;;;;;24.81;26.38;100233.72;4910109;29;20047;-90
2023/03/07 07:10:17;;;;;;;35.20;17.17;;;;;;;24.53;26.27;100236.84;4932148;29;20047;-89
2023/03/07 07:12:46;;;;;;;30.30;14.85;;;;;;;23.63;27.36;100240.09;4898608;29;20427;-89
2023/03/07 07:15:13;;;;;;;24.35;14.25;;;;;;;23.11;28.46;100232.34;4931405;29;20094;-89
2023/03/07 07:17:40;;;;;;;32.65;15.45;;;;;;;23.06;29.24;100238.59;4913141;29;20110;-88
2023/03/07 07:20:10;;;;;;;29.38;15.45;;;;;;;23.24;28.51;100245.66;4905527;29;20514;-88
2023/03/07 07:22:41;;;;;;;26.50;14.27;;;;;;;23.06;28.75;100245.97;4921378;29;20145;-88
2023/03/07 07:25:11;;;;;;;21.90;12.93;;;;;;;22.60;29.41;100242.56;4944781;29;20036;-90
2023/03/07 07:27:38;;;;;;;20.23;12.82;;;;;;;22.34;29.63;100242.97;4950273;29;20100;-90
2023/03/07 07:30:07;;;;;;;18.42;12.65;;;;;;;22.66;29.42;100247.00;4927789;29;20115;-86
2023/03/07 07:32:35;;;;;;;29.08;12.50;;;;;;;22.84;29.41;100237.69;4890505;29;20079;-87
2023/03/07 07:35:01;;;;;;;21.15;11.70;;;;;;;23.14;28.87;100229.91;4913869;29;20054;-87
2023/03/07 07:37:32;;;;;;;20.48;11.20;;;;;;;23.08;28.54;100224.59;4903737;29;20035;-94
2023/03/07 07:39:59;;;;;;;24.85;13.13;;;;;;;23.31;28.55;100235.31;4908566;29;20059;-88
2023/03/07 07:42:25;;;;;;;15.05;10.80;;;;;;;23.70;27.94;100232.47;4938590;29;20044;-87
2023/03/07 07:44:51;;;;;;;13.98;9.55;;;;;;;23.57;27.70;100224.63;4926309;29;20043;-89
2023/03/07 07:47:16;;;;;;;12.20;9.02;;;;;;;23.12;28.75;100231.25;4923119;29;20127;-88
2023/03/07 07:49:42;;;;;;;16.98;10.65;;;;;;;23.06;28.81;100230.38;4930298;29;20023;-89
2023/03/07 07:52:07;;;;;;;19.80;10.80;;;;;;;24.09;27.70;100224.13;4905165;29;20070;-88
2023/03/07 07:54:34;;;;;;;11.80;8.98;;;;;;;24.41;26.93;100221.31;4895143;29;20055;-92
2023/03/07 07:57:01;;;;;;;14.43;9.40;;;;;;;24.96;26.01;100223.88;4935859;29;20075;-88
2023/03/07 07:59:27;;;;;;;19.23;10.07;;;;;;;25.58;25.72;100222.25;4923482;29;20048;-90
2023/03/07 08:01:53;;;;;;;14.32;8.50;;;;;;;26.70;23.89;100216.81;4941397;29;20386;-88
2023/03/07 08:04:20;;;;;;;18.83;10.15;;;;;;;26.16;24.83;100220.16;4925429;29;20036;-87
2023/03/07 08:06:45;;;;;;;17.08;10.13;;;;;;;27.46;23.12;100217.66;4942260;29;20055;-89
2023/03/07 08:09:13;;;;;;;15.90;8.65;;;;;;;27.56;22.70;100223.16;4904614;29;20048;-89
2023/03/07 08:11:41;;;;;;;13.48;8.77;;;;;;;27.91;22.67;100217.69;4921185;29;20051;-90
2023/03/07 08:14:12;;;;;;;17.75;9.10;;;;;;;29.18;21.44;100215.69;4924164;29;20040;-88
2023/03/07 08:16:37;;;;;;;17.42;9.63;;;;;;;28.91;21.42;100216.25;4901530;29;20153;-89
2023/03/07 08:19:03;;;;;;;15.82;9.63;;;;;;;29.52;21.10;100219.41;4904569;29;20119;-88
2023/03/07 08:21:31;;;;;;;16.05;9.50;;;;;;;29.65;20.61;100193.72;4911330;29;20044;-92
2023/03/07 08:24:02;;;;;;;14.07;9.32;;;;;;;30.20;20.18;100213.38;4890671;29;20123;-90
2023/03/07 08:26:31;;;;;;;21.17;10.02;;;;;;;28.54;21.81;100206.72;4906595;29;20046;-94
2023/03/07 08:29:01;;;;;;;20.45;10.15;;;;;;;29.96;20.42;100193.28;4912678;29;20126;-89
2023/03/07 08:31:27;;;;;;;15.20;8.98;;;;;;;29.27;20.87;100192.88;4914613;29;20055;-89
2023/03/07 08:33:53;;;;;;;15.25;9.10;;;;;;;30.88;19.40;100200.84;4883576;29;20056;-89
2023/03/07 08:36:18;;;;;;;20.52;8.80;;;;;;;30.56;19.18;100181.47;4900571;29;20035;-89
2023/03/07 08:38:52;;;;;;;13.82;9.13;;;;;;;31.10;19.00;100179.84;4896097;29;20187;-89
2023/03/07 08:41:19;;;;;;;13.63;9.02;;;;;;;31.40;18.82;100183.09;4918056;29;20504;-89
2023/03/07 08:43:45;;;;;;;15.18;8.88;;;;;;;31.56;18.59;100170.50;4930042;29;20044;-91
2023/03/07 08:46:11;;;;;;;13.82;8.63;;;;;;;32.66;17.59;100185.03;4932944;29;20683;-89
2023/03/07 08:48:38;;;;;;;14.98;8.48;;;;;;;33.08;16.79;100185.53;4934934;29;20125;-87
2023/03/07 08:51:09;;;;;;;16.52;8.13;;;;;;;33.97;16.43;100186.94;4931769;29;20100;-87
2023/03/07 08:53:37;;;;;;;14.00;7.72;;;;;;;34.50;15.53;100162.56;4913307;29;20453;-88
2023/03/07 08:56:06;;;;;;;9.48;7.30;;;;;;;35.20;15.13;100163.09;4900847;29;20123;-91
2023/03/07 08:58:35;;;;;;;9.68;7.50;;;;;;;35.95;14.88;100184.69;4916715;29;20055;-90
2023/03/07 09:01:01;;;;;;;9.27;7.28;;;;;;;33.88;15.98;100168.59;4912433;29;20146;-87
2023/03/07 09:03:26;;;;;;;10.98;7.10;;;;;;;33.82;15.86;100182.69;4917273;29;20138;-84
2023/03/07 09:05:52;;;;;;;12.38;7.65;;;;;;;35.28;15.08;100175.34;4933627;29;20043;-86
2023/03/07 09:08:17;;;;;;;22.70;9.38;;;;;;;35.91;14.40;100167.78;4912457;29;20067;-88
2023/03/07 09:10:44;;;;;;;10.43;8.15;;;;;;;36.49;14.00;100173.44;4916158;29;20067;-86
2023/03/07 09:13:11;;;;;;;13.48;8.85;;;;;;;36.90;13.81;100165.22;4902955;29;20480;-86
2023/03/07 09:15:47;;;;;;;9.93;7.10;;;;;;;36.62;13.91;100168.72;4930746;29;20123;-88
2023/03/07 09:18:13;;;;;;;17.00;10.80;;;;;;;35.64;14.38;100168.38;4926099;29;20068;-87
2023/03/07 09:20:39;;;;;;;17.67;10.93;;;;;;;35.57;14.79;100165.28;4916670;29;20040;-89
2023/03/07 09:23:09;;;;;;;13.65;10.35;;;;;;;36.34;14.00;100155.34;4911005;29;20048;-88
2023/03/07 09:25:39;;;;;;;13.52;10.45;;;;;;;34.74;15.55;100155.59;4924046;29;20047;-87
2023/03/07 09:28:09;;;;;;;21.63;10.18;;;;;;;35.97;14.23;100151.63;4924327;29;20151;-86
2023/03/07 09:30:38;;;;;;;18.48;9.77;;;;;;;36.62;13.87;100151.94;4942860;29;20039;-95
2023/03/07 09:33:04;;;;;;;15.55;9.57;;;;;;;37.66;12.70;100157.19;4892043;29;20439;-94
2023/03/07 09:35:29;;;;;;;14.20;10.73;;;;;;;37.29;13.27;100146.84;4918510;29;20044;-91
2023/03/07 09:37:55;;;;;;;19.67;11.10;;;;;;;38.06;13.28;100150.72;4917258;29;20099;-94
2023/03/07 09:40:25;;;;;;;17.65;10.82;;;;;;;38.27;12.77;100159.72;4939241;29;20519;-92
2023/03/07 09:43:02;;;;;;;14.45;9.88;;;;;;;38.63;12.18;100160.63;4889936;29;20044;-92
2023/03/07 09:46:14;;;;;;;13.48;9.48;;;;;;;38.50;12.15;100164.75;4937064;29;20059;-93
2023/03/07 09:48:51;;;;;;;12.98;9.15;;;;;;;37.43;13.08;100160.50;4913847;29;20136;-87
2023/03/07 09:51:28;;;;;;;11.23;8.75;;;;;;;37.23;13.27;100150.25;4932281;29;20461;-89
2023/03/07 09:54:17;;;;;;;13.63;8.90;;;;;;;36.97;13.08;100135.47;4937471;29;20468;-87
2023/03/07 09:56:57;;;;;;;10.10;8.70;;;;;;;35.50;14.43;100149.88;4905477;29;20200;-90
2023/03/07 09:59:42;;;;;;;11.27;8.40;;;;;;;35.19;15.32;100138.28;4901576;29;20604;-88
2023/03/07 10:02:18;;;;;;;10.48;8.60;;;;;;;35.42;14.41;100125.59;4899482;29;20406;-89
2023/03/07 10:05:05;;;;;;;12.00;8.20;;;;;;;35.66;14.24;100146.47;4930946;29;20055;-95
2023/03/07 10:07:34;;;;;;;9.45;8.05;;;;;;;36.62;13.68;100126.72;4934961;29;20036;-92
2023/03/07 10:10:11;;;;;;;9.75;7.80;;;;;;;35.89;14.14;100105.81;4913552;29;20047;-93
2023/03/07 10:13:02;;;;;;;10.15;8.10;;;;;;;35.28;14.38;100130.66;4931258;29;20123;-92
2023/03/07 10:16:26;;;;;;;9.27;8.20;;;;;;;36.07;14.50;100139.16;4916834;29;20047;-93
2023/03/07 10:19:16;;;;;;;11.50;8.05;;;;;;;37.04;13.74;100126.47;4906056;29;20075;-92
2023/03/07 10:22:17;;;;;;;10.38;7.45;;;;;;;35.97;14.18;100123.66;4936685;29;20543;-92
2023/03/07 10:24:49;;;;;;;8.68;7.43;;;;;;;33.76;16.21;100121.84;4912827;29;20115;-91
2023/03/07 10:27:19;;;;;;;9.35;7.15;;;;;;;32.88;17.07;100126.50;4930849;29;20062;-90
2023/03/07 10:30:00;;;;;;;10.40;7.78;;;;;;;31.79;18.08;100090.78;5020201;23;20082;-92
2023/03/07 10:36:15;;;;;;;10.57;7.55;;;;;;;32.66;17.55;100101.56;4964266;28;20059;-91
2023/03/07 10:39:01;;;;;;;12.32;7.38;;;;;;;34.24;16.25;100092.91;4922489;29;20039;-96
2023/03/07 10:41:28;;;;;;;9.20;7.30;;;;;;;34.28;16.05;100098.63;4924878;29;20415;-96
2023/03/07 10:43:56;;;;;;;10.85;7.15;;;;;;;33.08;17.30;100085.31;4922141;29;20061;-90
2023/03/07 10:46:26;;;;;;;7.93;6.85;;;;;;;33.10;17.45;100105.28;4904752;29;20055;-92
2023/03/07 10:49:09;;;;;;;10.05;7.50;;;;;;;34.00;16.59;100091.50;4932641;29;20054;-92
2023/03/07 10:52:07;;;;;;;10.18;7.03;;;;;;;33.39;17.16;100091.56;4931642;29;20082;-94
2023/03/07 10:55:17;;;;;;;12.45;7.38;;;;;;;30.58;19.80;100084.88;4962447;28;20031;-91
2023/03/07 10:58:22;;;;;;;9.13;7.50;;;;;;;30.76;19.57;100064.53;4998334;23;20126;-92
2023/03/07 11:01:06;;;;;;;13.13;8.65;;;;;;;30.56;20.24;100074.13;4957056;28;20174;-82
2023/03/07 11:03:39;;;;;;;10.45;8.15;;;;;;;28.71;22.28;100078.22;4977082;28;20054;-89
2023/03/07 11:06:26;;;;;;;9.68;6.95;;;;;;;24.74;26.72;100081.94;4966023;28;20376;-94
2023/03/07 11:09:24;;;;;;;10.75;7.47;;;;;;;23.41;29.01;100067.28;4948077;28;20055;-95
2023/03/07 11:12:00;;;;;;;11.57;7.63;;;;;;;22.37;31.04;100077.31;4982453;28;20172;-91
2023/03/07 11:14:32;;;;;;;10.90;8.05;;;;;;;24.05;28.92;100057.41;4968837;28;20118;-93
2023/03/07 11:17:45;;;;;;;12.93;8.85;;;;;;;23.12;30.64;100080.44;4974762;28;20139;-94
2023/03/07 11:21:08;;;;;;;13.63;9.00;;;;;;;23.42;30.05;100047.00;4984045;28;20074;-96
2023/03/07 11:23:40;;;;;;;17.25;8.60;;;;;;;22.74;31.59;100068.50;4978478;28;20043;-91
2023/03/07 11:26:20;;;;;;;13.85;8.77;;;;;;;22.70;32.53;100079.13;4934807;28;20543;-89
2023/03/07 11:29:27;;;;;;;11.95;8.30;;;;;;;23.39;31.30;100064.00;4953833;28;20502;-87
2023/03/07 11:31:55;;;;;;;9.93;7.45;;;;;;;21.41;34.02;100067.34;4895759;29;20521;-84
2023/03/07 11:34:54;;;;;;;16.77;8.30;;;;;;;22.16;33.15;100058.94;4883278;29;20557;-87